Detall de PIREP

Printer-friendly versionPDF version

[2013/03/13 11:06:00]
Flight IATA:CT2211
Pilot Number:042
Company ICAO:CAT
Aircraft Type:A320/E
PAX:78
Departing Airport: LFPG
Destination Airport: LFMP
Alternate Airport:LFBO
Online: VATSIM
Route:ERIXU UN860 ETAMO UN855 VALKU UN855 OLRAK UZ131 BADAM UY27 NEKTA UY27 SIJAN
Flight Level:F350
No Slew and time accel
No pause
Crash detect
Detect pilot in Cockpit between each 30 and 45 minutes
11:06 Zero fuel Weight: 143851 Lbs, Fuel Weight: 42156 Lbs
11:06 VATSIM:LFPG 131100Z VRB02KT 9999 FEW018 BKN028 M01/M06 Q1008 R08L/19//52 R08R/81//60 R09L/29//44 R09R/19//52 NOSIG
11:06 VATSIM:LFMP 131100Z 31026G38KT 9999 BKN050 06/M03 Q0998 NOSIG
11:09 VOICE CATALONIAN
11:24 Parking Brakes off
11:42 Take-off
11:42 Take off Weight: 183570 Lbs
11:42 Wind: 173º @ 005 Knots Heading: 263º
11:42 POS N48º 59´ 46´´ E002º 33´ 45´´
11:42 Gear Up: 189 Knots
11:42 Flaps:3 at 189 Knots
11:42 Flaps:2 at 191 Knots
11:43 Flaps:0 at 194 Knots
11:57 Wind:327º@057 Knots Heading: 181º Ground Speed: 456 Knots Altitude 23694 ft
12:10 TOC
12:10 Fuel Weight: 33487 Lb
12:12 Wind:323º@073 Knots Heading: 161º Ground Speed: 506 Knots Altitude 34747 ft
12:27 Wind:318º@071 Knots Heading: 177º Ground Speed: 501 Knots Altitude 34599 ft
12:27 TOD
12:27 Fuel Weight: 31720 Lb
12:27 TOC
12:27 Fuel Weight: 31719 Lb
12:28 TOD
12:28 Fuel Weight: 31630 Lb
12:28 TOC
12:28 Fuel Weight: 31621 Lb
12:32 TOD
12:32 Fuel Weight: 31205 Lb
12:32 TOC
12:32 Fuel Weight: 31202 Lb
12:33 TOD
12:33 Fuel Weight: 31130 Lb
12:33 TOC
12:33 Fuel Weight: 31128 Lb
12:34 TOD
12:34 Fuel Weight: 31118 Lb
12:42 Wind:317º@059 Knots Heading: 357º Ground Speed: 262 Knots Altitude 21115 ft
12:53 Flaps:1 at 190 Knots
12:54 Flaps:3 at 190 Knots
12:56 Gear Down: 182 Knots
12:56 Flaps:4 at 182 Knots
12:56 Flaps:5 at 181 Knots
12:57 Wind:002º@002 Knots Heading: 333º Ground Speed: 160 Knots Altitude 2221 ft
12:59 TouchDown:Rate -609 ft/min Speed: 153 Knots
12:59 VATSIM:LFMP 131230Z 33028G43KT 9999 OVC060 05/M04 Q0999 BECMG 31030G55KT
12:59 Land
12:59 Wind:002º@002 Knots
12:59 Heading: 331º
12:59 Flight Duration: 01:17
12:59 Landing Weight: 173031 Lbs
12:59 POS N42º 44´ 54´´ E002º 51´ 59´´
13:03 Parking brakes on
13:03 Block to Block Duration: 01:39
13:03 Final Fuel: 28743 Lbls
13:03 Spent Fuel: 13412 Lbls
13:03 Flight Length: 496 NM
13:03 TOD Land Length: 115 NM

Exportar CSV

Powered by Drupal - Modified by Danger4k